sensor_id;sensor_type;location;lat;lon;timestamp;temperature;humidity
35680;DHT22;21803;53.586;10.040;2023-07-22T04:01:00;26.80;41.90
35680;DHT22;21803;53.586;10.040;2023-07-22T04:03:25;26.80;42.00
35680;DHT22;21803;53.586;10.040;2023-07-22T04:05:57;26.80;41.90
35680;DHT22;21803;53.586;10.040;2023-07-22T04:08:22;26.80;42.00
35680;DHT22;21803;53.586;10.040;2023-07-22T04:10:52;26.80;42.00
35680;DHT22;21803;53.586;10.040;2023-07-22T04:13:18;26.80;42.00
35680;DHT22;21803;53.586;10.040;2023-07-22T04:15:43;26.80;41.90
35680;DHT22;21803;53.586;10.040;2023-07-22T04:18:09;26.80;41.90
35680;DHT22;21803;53.586;10.040;2023-07-22T04:20:35;26.80;42.00
35680;DHT22;21803;53.586;10.040;2023-07-22T04:23:00;26.90;42.00
35680;DHT22;21803;53.586;10.040;2023-07-22T04:25:26;26.90;42.00
35680;DHT22;21803;53.586;10.040;2023-07-22T04:27:51;26.90;42.00
35680;DHT22;21803;53.586;10.040;2023-07-22T04:30:17;26.90;42.00
35680;DHT22;21803;53.586;10.040;2023-07-22T04:32:48;26.90;42.00
35680;DHT22;21803;53.586;10.040;2023-07-22T04:35:14;26.80;41.90
35680;DHT22;21803;53.586;10.040;2023-07-22T04:37:45;26.90;42.00
35680;DHT22;21803;53.586;10.040;2023-07-22T04:40:11;26.90;42.00
35680;DHT22;21803;53.586;10.040;2023-07-22T04:42:42;26.90;42.00
35680;DHT22;21803;53.586;10.040;2023-07-22T04:45:09;26.80;41.80
35680;DHT22;21803;53.586;10.040;2023-07-22T04:47:40;26.90;41.90
35680;DHT22;21803;53.586;10.040;2023-07-22T04:50:07;27.00;41.90
35680;DHT22;21803;53.586;10.040;2023-07-22T04:52:35;27.00;41.80
35680;DHT22;21803;53.586;10.040;2023-07-22T04:55:01;27.00;41.80
35680;DHT22;21803;53.586;10.040;2023-07-22T04:57:30;26.90;41.80
35680;DHT22;21803;53.586;10.040;2023-07-22T04:59:55;26.80;41.70
35680;DHT22;21803;53.586;10.040;2023-07-22T05:02:21;27.00;41.80
35680;DHT22;21803;53.586;10.040;2023-07-22T05:04:46;26.90;41.80
35680;DHT22;21803;53.586;10.040;2023-07-22T05:07:12;26.90;41.80
35680;DHT22;21803;53.586;10.040;2023-07-22T05:09:37;26.80;41.70
35680;DHT22;21803;53.586;10.040;2023-07-22T05:12:03;27.00;41.80
35680;DHT22;21803;53.586;10.040;2023-07-22T05:14:29;26.90;41.80
35680;DHT22;21803;53.586;10.040;2023-07-22T05:16:54;27.00;41.90
35680;DHT22;21803;53.586;10.040;2023-07-22T05:19:20;26.90;41.80
35680;DHT22;21803;53.586;10.040;2023-07-22T05:21:46;26.90;41.80
35680;DHT22;21803;53.586;10.040;2023-07-22T05:24:11;26.90;41.90
35680;DHT22;21803;53.586;10.040;2023-07-22T05:26:37;26.90;41.90
35680;DHT22;21803;53.586;10.040;2023-07-22T05:29:03;26.80;41.80
35680;DHT22;21803;53.586;10.040;2023-07-22T05:31:28;26.90;41.90
35680;DHT22;21803;53.586;10.040;2023-07-22T05:33:54;27.00;41.90
35680;DHT22;21803;53.586;10.040;2023-07-22T05:36:20;26.90;41.80
35680;DHT22;21803;53.586;10.040;2023-07-22T05:38:46;27.00;41.90
35680;DHT22;21803;53.586;10.040;2023-07-22T05:41:11;27.00;41.90
35680;DHT22;21803;53.586;10.040;2023-07-22T05:43:37;27.00;41.80
35680;DHT22;21803;53.586;10.040;2023-07-22T05:46:02;27.10;41.80
35680;DHT22;21803;53.586;10.040;2023-07-22T05:48:28;27.10;41.80
35680;DHT22;21803;53.586;10.040;2023-07-22T05:50:53;26.90;41.60
35680;DHT22;21803;53.586;10.040;2023-07-22T05:53:19;27.10;41.70
35680;DHT22;21803;53.586;10.040;2023-07-22T05:55:45;27.10;41.70
35680;DHT22;21803;53.586;10.040;2023-07-22T05:58:17;27.20;41.70
35680;DHT22;21803;53.586;10.040;2023-07-22T06:00:43;27.10;41.60
35680;DHT22;21803;53.586;10.040;2023-07-22T06:03:09;27.10;41.60
35680;DHT22;21803;53.586;10.040;2023-07-22T06:05:34;27.20;41.60
35680;DHT22;21803;53.586;10.040;2023-07-22T06:08:00;27.10;41.60
35680;DHT22;21803;53.586;10.040;2023-07-22T06:10:25;27.10;41.50
35680;DHT22;21803;53.586;10.040;2023-07-22T06:12:51;27.20;41.60
35680;DHT22;21803;53.586;10.040;2023-07-22T06:15:16;27.20;41.60
35680;DHT22;21803;53.586;10.040;2023-07-22T06:17:42;27.20;41.50
35680;DHT22;21803;53.586;10.040;2023-07-22T06:20:08;27.20;41.50
35680;DHT22;21803;53.586;10.040;2023-07-22T06:22:34;27.20;41.50
35680;DHT22;21803;53.586;10.040;2023-07-22T06:24:59;27.20;41.50
35680;DHT22;21803;53.586;10.040;2023-07-22T06:27:25;27.20;41.50
35680;DHT22;21803;53.586;10.040;2023-07-22T06:29:50;27.20;41.50
35680;DHT22;21803;53.586;10.040;2023-07-22T06:32:16;27.30;41.60
35680;DHT22;21803;53.586;10.040;2023-07-22T06:34:41;27.20;41.50
35680;DHT22;21803;53.586;10.040;2023-07-22T06:37:07;27.20;41.50
35680;DHT22;21803;53.586;10.040;2023-07-22T06:39:32;27.30;41.50
35680;DHT22;21803;53.586;10.040;2023-07-22T06:41:58;27.30;42.10
35680;DHT22;21803;53.586;10.040;2023-07-22T06:44:23;27.30;41.50
35680;DHT22;21803;53.586;10.040;2023-07-22T06:46:49;27.30;41.40
35680;DHT22;21803;53.586;10.040;2023-07-22T06:49:14;27.30;41.40
35680;DHT22;21803;53.586;10.040;2023-07-22T06:51:40;27.30;41.40
35680;DHT22;21803;53.586;10.040;2023-07-22T06:54:06;27.30;41.40
35680;DHT22;21803;53.586;10.040;2023-07-22T06:56:31;27.40;41.50
35680;DHT22;21803;53.586;10.040;2023-07-22T06:58:58;27.40;41.50
35680;DHT22;21803;53.586;10.040;2023-07-22T07:01:23;27.40;41.60
35680;DHT22;21803;53.586;10.040;2023-07-22T07:03:49;27.40;41.60
35680;DHT22;21803;53.586;10.040;2023-07-22T07:06:14;27.40;41.60
35680;DHT22;21803;53.586;10.040;2023-07-22T07:08:40;27.40;41.60
35680;DHT22;21803;53.586;10.040;2023-07-22T07:11:05;27.40;41.60
35680;DHT22;21803;53.586;10.040;2023-07-22T07:13:31;27.40;41.60
35680;DHT22;21803;53.586;10.040;2023-07-22T07:16:26;27.40;41.60
35680;DHT22;21803;53.586;10.040;2023-07-22T07:18:52;27.30;41.50
35680;DHT22;21803;53.586;10.040;2023-07-22T07:21:19;27.40;41.60
35680;DHT22;21803;53.586;10.040;2023-07-22T07:23:45;27.40;41.60
35680;DHT22;21803;53.586;10.040;2023-07-22T07:26:11;27.30;41.50
35680;DHT22;21803;53.586;10.040;2023-07-22T07:28:37;27.30;41.60
35680;DHT22;21803;53.586;10.040;2023-07-22T07:31:02;27.40;41.60
35680;DHT22;21803;53.586;10.040;2023-07-22T07:33:28;27.30;41.60
35680;DHT22;21803;53.586;10.040;2023-07-22T07:35:54;27.30;41.60
35680;DHT22;21803;53.586;10.040;2023-07-22T07:38:19;27.30;41.60
35680;DHT22;21803;53.586;10.040;2023-07-22T07:40:45;27.30;41.60
35680;DHT22;21803;53.586;10.040;2023-07-22T07:43:10;27.40;41.70
35680;DHT22;21803;53.586;10.040;2023-07-22T07:45:38;27.30;41.60
35680;DHT22;21803;53.586;10.040;2023-07-22T07:48:05;27.20;41.60
35680;DHT22;21803;53.586;10.040;2023-07-22T07:50:31;27.30;41.70
35680;DHT22;21803;53.586;10.040;2023-07-22T07:52:57;27.30;41.60
35680;DHT22;21803;53.586;10.040;2023-07-22T07:55:23;27.30;41.60
35680;DHT22;21803;53.586;10.040;2023-07-22T07:57:48;27.20;41.60
35680;DHT22;21803;53.586;10.040;2023-07-22T08:00:14;27.20;41.60
35680;DHT22;21803;53.586;10.040;2023-07-22T08:02:40;27.20;41.60
35680;DHT22;21803;53.586;10.040;2023-07-22T08:05:05;27.30;41.60
35680;DHT22;21803;53.586;10.040;2023-07-22T08:07:31;27.20;41.50
35680;DHT22;21803;53.586;10.040;2023-07-22T08:09:56;27.30;41.60
35680;DHT22;21803;53.586;10.040;2023-07-22T08:12:23;27.20;41.50
35680;DHT22;21803;53.586;10.040;2023-07-22T08:14:49;27.20;41.50
35680;DHT22;21803;53.586;10.040;2023-07-22T08:17:14;27.30;41.60
35680;DHT22;21803;53.586;10.040;2023-07-22T08:19:40;27.20;41.50
35680;DHT22;21803;53.586;10.040;2023-07-22T08:22:05;27.20;41.50
35680;DHT22;21803;53.586;10.040;2023-07-22T08:24:31;27.20;41.50
35680;DHT22;21803;53.586;10.040;2023-07-22T08:26:58;27.20;41.50
35680;DHT22;21803;53.586;10.040;2023-07-22T08:29:24;27.20;41.50
35680;DHT22;21803;53.586;10.040;2023-07-22T08:31:49;27.20;41.50
35680;DHT22;21803;53.586;10.040;2023-07-22T08:34:15;27.20;41.50
35680;DHT22;21803;53.586;10.040;2023-07-22T08:36:41;27.20;41.60
35680;DHT22;21803;53.586;10.040;2023-07-22T08:39:07;27.20;41.50
35680;DHT22;21803;53.586;10.040;2023-07-22T08:41:33;27.20;41.50
35680;DHT22;21803;53.586;10.040;2023-07-22T08:44:00;27.20;41.50
35680;DHT22;21803;53.586;10.040;2023-07-22T08:46:28;27.20;41.50
35680;DHT22;21803;53.586;10.040;2023-07-22T08:48:59;27.20;41.50
35680;DHT22;21803;53.586;10.040;2023-07-22T08:51:26;27.10;41.50
35680;DHT22;21803;53.586;10.040;2023-07-22T08:53:56;27.20;41.50
35680;DHT22;21803;53.586;10.040;2023-07-22T08:56:25;27.20;41.50
35680;DHT22;21803;53.586;10.040;2023-07-22T08:58:52;27.20;41.40
35680;DHT22;21803;53.586;10.040;2023-07-22T09:01:18;27.20;41.30
35680;DHT22;21803;53.586;10.040;2023-07-22T09:03:44;27.20;41.30
35680;DHT22;21803;53.586;10.040;2023-07-22T09:06:12;27.20;41.30
35680;DHT22;21803;53.586;10.040;2023-07-22T09:08:38;27.30;41.30
35680;DHT22;21803;53.586;10.040;2023-07-22T09:11:04;27.00;41.10
35680;DHT22;21803;53.586;10.040;2023-07-22T09:13:30;27.20;41.20
35680;DHT22;21803;53.586;10.040;2023-07-22T09:15:59;27.20;41.00
35680;DHT22;21803;53.586;10.040;2023-07-22T09:18:25;27.20;40.40
35680;DHT22;21803;53.586;10.040;2023-07-22T09:20:51;27.20;39.60
35680;DHT22;21803;53.586;10.040;2023-07-22T09:23:17;27.20;39.30
35680;DHT22;21803;53.586;10.040;2023-07-22T09:25:43;27.10;39.20
35680;DHT22;21803;53.586;10.040;2023-07-22T09:28:08;27.20;39.40
35680;DHT22;21803;53.586;10.040;2023-07-22T09:30:36;27.20;39.60
35680;DHT22;21803;53.586;10.040;2023-07-22T09:33:05;27.20;39.80
35680;DHT22;21803;53.586;10.040;2023-07-22T09:35:44;27.20;39.90
35680;DHT22;21803;53.586;10.040;2023-07-22T09:38:10;27.20;39.90
35680;DHT22;21803;53.586;10.040;2023-07-22T09:40:40;27.20;40.00
35680;DHT22;21803;53.586;10.040;2023-07-22T09:43:05;27.20;40.00
35680;DHT22;21803;53.586;10.040;2023-07-22T09:45:32;27.20;40.00
35680;DHT22;21803;53.586;10.040;2023-07-22T09:47:58;27.20;40.10
35680;DHT22;21803;53.586;10.040;2023-07-22T09:50:26;27.10;40.00
35680;DHT22;21803;53.586;10.040;2023-07-22T09:52:54;27.20;40.00
35680;DHT22;21803;53.586;10.040;2023-07-22T09:55:22;27.20;40.00
35680;DHT22;21803;53.586;10.040;2023-07-22T09:57:55;27.10;40.00
35680;DHT22;21803;53.586;10.040;2023-07-22T10:00:24;27.20;40.10
35680;DHT22;21803;53.586;10.040;2023-07-22T10:02:51;27.20;40.00
35680;DHT22;21803;53.586;10.040;2023-07-22T10:05:18;27.10;40.00
35680;DHT22;21803;53.586;10.040;2023-07-22T10:07:47;27.20;40.00
35680;DHT22;21803;53.586;10.040;2023-07-22T10:10:15;27.10;40.00
35680;DHT22;21803;53.586;10.040;2023-07-22T10:12:42;27.20;40.00
35680;DHT22;21803;53.586;10.040;2023-07-22T10:15:12;27.10;40.00
35680;DHT22;21803;53.586;10.040;2023-07-22T10:17:39;27.20;40.10
35680;DHT22;21803;53.586;10.040;2023-07-22T10:20:06;27.30;40.10
35680;DHT22;21803;53.586;10.040;2023-07-22T10:22:37;27.10;40.00
35680;DHT22;21803;53.586;10.040;2023-07-22T10:25:04;27.10;39.90
35680;DHT22;21803;53.586;10.040;2023-07-22T10:27:32;27.10;39.90
35680;DHT22;21803;53.586;10.040;2023-07-22T10:29:59;27.10;39.90
35680;DHT22;21803;53.586;10.040;2023-07-22T10:32:25;27.20;39.90
35680;DHT22;21803;53.586;10.040;2023-07-22T10:34:56;27.20;39.90
35680;DHT22;21803;53.586;10.040;2023-07-22T10:37:29;27.20;39.90
35680;DHT22;21803;53.586;10.040;2023-07-22T10:39:59;27.20;39.90
35680;DHT22;21803;53.586;10.040;2023-07-22T10:42:25;27.10;39.90
35680;DHT22;21803;53.586;10.040;2023-07-22T10:44:51;27.30;39.90
35680;DHT22;21803;53.586;10.040;2023-07-22T10:47:33;27.20;39.90
35680;DHT22;21803;53.586;10.040;2023-07-22T10:50:06;27.20;39.80
35680;DHT22;21803;53.586;10.040;2023-07-22T10:52:43;27.10;39.60
35680;DHT22;21803;53.586;10.040;2023-07-22T10:55:19;27.10;39.60
35680;DHT22;21803;53.586;10.040;2023-07-22T10:57:54;27.20;39.70
35680;DHT22;21803;53.586;10.040;2023-07-22T11:00:21;27.20;39.70
35680;DHT22;21803;53.586;10.040;2023-07-22T11:03:08;27.10;39.70
35680;DHT22;21803;53.586;10.040;2023-07-22T11:05:53;27.10;39.60
35680;DHT22;21803;53.586;10.040;2023-07-22T11:08:40;27.10;39.60
35680;DHT22;21803;53.586;10.040;2023-07-22T11:11:06;27.10;39.60
35680;DHT22;21803;53.586;10.040;2023-07-22T11:13:40;27.20;39.60
35680;DHT22;21803;53.586;10.040;2023-07-22T11:16:10;27.10;39.60
35680;DHT22;21803;53.586;10.040;2023-07-22T11:18:37;27.10;39.60
35680;DHT22;21803;53.586;10.040;2023-07-22T11:21:10;27.00;39.60
35680;DHT22;21803;53.586;10.040;2023-07-22T11:23:36;27.10;39.60
35680;DHT22;21803;53.586;10.040;2023-07-22T11:26:03;27.10;39.60
35680;DHT22;21803;53.586;10.040;2023-07-22T11:28:28;27.10;39.70
35680;DHT22;21803;53.586;10.040;2023-07-22T11:30:54;27.10;39.70
35680;DHT22;21803;53.586;10.040;2023-07-22T11:33:20;27.10;39.60
35680;DHT22;21803;53.586;10.040;2023-07-22T11:35:45;27.10;39.70
35680;DHT22;21803;53.586;10.040;2023-07-22T11:38:14;27.20;39.70
35680;DHT22;21803;53.586;10.040;2023-07-22T11:40:39;27.10;39.60
35680;DHT22;21803;53.586;10.040;2023-07-22T11:43:05;27.10;39.60
35680;DHT22;21803;53.586;10.040;2023-07-22T11:45:31;27.10;39.60
35680;DHT22;21803;53.586;10.040;2023-07-22T11:47:56;27.10;39.60
35680;DHT22;21803;53.586;10.040;2023-07-22T11:50:32;27.10;39.60
35680;DHT22;21803;53.586;10.040;2023-07-22T11:52:58;27.20;39.70
35680;DHT22;21803;53.586;10.040;2023-07-22T11:55:24;27.20;39.60
35680;DHT22;21803;53.586;10.040;2023-07-22T11:57:55;27.10;39.60
35680;DHT22;21803;53.586;10.040;2023-07-22T12:00:21;27.10;39.60
35680;DHT22;21803;53.586;10.040;2023-07-22T12:02:47;27.10;39.60
35680;DHT22;21803;53.586;10.040;2023-07-22T12:05:21;27.00;39.50
35680;DHT22;21803;53.586;10.040;2023-07-22T12:07:46;27.10;39.60
35680;DHT22;21803;53.586;10.040;2023-07-22T12:10:15;27.10;39.60
35680;DHT22;21803;53.586;10.040;2023-07-22T12:12:43;27.10;39.60
35680;DHT22;21803;53.586;10.040;2023-07-22T12:15:13;27.10;39.60
35680;DHT22;21803;53.586;10.040;2023-07-22T12:17:57;27.10;39.60
35680;DHT22;21803;53.586;10.040;2023-07-22T12:20:27;27.10;39.70
35680;DHT22;21803;53.586;10.040;2023-07-22T12:22:54;27.10;39.70
35680;DHT22;21803;53.586;10.040;2023-07-22T12:25:20;27.20;39.80
35680;DHT22;21803;53.586;10.040;2023-07-22T12:27:45;27.10;39.80
35680;DHT22;21803;53.586;10.040;2023-07-22T12:30:11;27.10;39.80
35680;DHT22;21803;53.586;10.040;2023-07-22T12:32:37;27.10;39.80
35680;DHT22;21803;53.586;10.040;2023-07-22T12:35:03;27.00;39.70
35680;DHT22;21803;53.586;10.040;2023-07-22T12:37:29;27.10;39.80
35680;DHT22;21803;53.586;10.040;2023-07-22T12:39:55;27.10;39.80
35680;DHT22;21803;53.586;10.040;2023-07-22T12:42:21;27.10;39.80
35680;DHT22;21803;53.586;10.040;2023-07-22T12:44:46;27.10;39.80
35680;DHT22;21803;53.586;10.040;2023-07-22T12:47:12;27.10;39.70
35680;DHT22;21803;53.586;10.040;2023-07-22T12:49:37;27.00;39.60
35680;DHT22;21803;53.586;10.040;2023-07-22T12:52:03;27.10;39.60
35680;DHT22;21803;53.586;10.040;2023-07-22T12:54:30;27.10;39.70
35680;DHT22;21803;53.586;10.040;2023-07-22T12:56:57;27.10;39.60
35680;DHT22;21803;53.586;10.040;2023-07-22T12:59:22;27.00;39.60
35680;DHT22;21803;53.586;10.040;2023-07-22T13:01:48;27.10;39.60
35680;DHT22;21803;53.586;10.040;2023-07-22T13:04:13;27.20;39.70
35680;DHT22;21803;53.586;10.040;2023-07-22T13:06:39;27.10;39.60
35680;DHT22;21803;53.586;10.040;2023-07-22T13:09:04;26.90;39.50
35680;DHT22;21803;53.586;10.040;2023-07-22T13:11:30;27.10;39.90
35680;DHT22;21803;53.586;10.040;2023-07-22T13:13:55;27.10;39.60
35680;DHT22;21803;53.586;10.040;2023-07-22T13:16:21;27.10;39.60
35680;DHT22;21803;53.586;10.040;2023-07-22T13:18:46;27.10;39.70
35680;DHT22;21803;53.586;10.040;2023-07-22T13:21:12;27.10;39.60
35680;DHT22;21803;53.586;10.040;2023-07-22T13:23:37;27.10;39.70
35680;DHT22;21803;53.586;10.040;2023-07-22T13:26:03;27.10;39.70
35680;DHT22;21803;53.586;10.040;2023-07-22T13:28:28;27.10;39.70
35680;DHT22;21803;53.586;10.040;2023-07-22T13:30:54;27.10;39.70
35680;DHT22;21803;53.586;10.040;2023-07-22T13:33:19;27.10;39.80
35680;DHT22;21803;53.586;10.040;2023-07-22T13:35:45;26.90;39.70
35680;DHT22;21803;53.586;10.040;2023-07-22T13:38:10;26.90;39.70
35680;DHT22;21803;53.586;10.040;2023-07-22T13:40:36;27.10;39.80
35680;DHT22;21803;53.586;10.040;2023-07-22T13:43:01;27.00;39.80
35680;DHT22;21803;53.586;10.040;2023-07-22T13:45:27;27.10;39.90
35680;DHT22;21803;53.586;10.040;2023-07-22T13:47:53;27.10;39.90
35680;DHT22;21803;53.586;10.040;2023-07-22T13:50:18;27.20;40.00
35680;DHT22;21803;53.586;10.040;2023-07-22T13:52:44;27.00;39.90
35680;DHT22;21803;53.586;10.040;2023-07-22T13:55:10;27.10;40.10
35680;DHT22;21803;53.586;10.040;2023-07-22T13:57:36;27.10;40.10
35680;DHT22;21803;53.586;10.040;2023-07-22T14:00:02;27.10;40.10
35680;DHT22;21803;53.586;10.040;2023-07-22T14:02:33;27.10;40.20
35680;DHT22;21803;53.586;10.040;2023-07-22T14:04:59;27.10;40.20
35680;DHT22;21803;53.586;10.040;2023-07-22T14:07:25;27.00;40.20
35680;DHT22;21803;53.586;10.040;2023-07-22T14:09:50;27.10;40.40
35680;DHT22;21803;53.586;10.040;2023-07-22T14:12:16;27.10;40.40
35680;DHT22;21803;53.586;10.040;2023-07-22T14:14:41;27.10;40.40
35680;DHT22;21803;53.586;10.040;2023-07-22T14:17:07;27.10;40.40
35680;DHT22;21803;53.586;10.040;2023-07-22T14:19:32;27.10;40.50
35680;DHT22;21803;53.586;10.040;2023-07-22T14:21:58;27.20;40.60
35680;DHT22;21803;53.586;10.040;2023-07-22T14:24:24;27.10;40.60
35680;DHT22;21803;53.586;10.040;2023-07-22T14:26:49;27.00;40.50
35680;DHT22;21803;53.586;10.040;2023-07-22T14:29:15;27.10;40.60
35680;DHT22;21803;53.586;10.040;2023-07-22T14:31:42;27.10;40.70
35680;DHT22;21803;53.586;10.040;2023-07-22T14:34:08;26.90;40.50
35680;DHT22;21803;53.586;10.040;2023-07-22T14:36:34;27.10;40.70
35680;DHT22;21803;53.586;10.040;2023-07-22T14:38:59;27.10;40.80
35680;DHT22;21803;53.586;10.040;2023-07-22T14:41:25;27.20;40.80
35680;DHT22;21803;53.586;10.040;2023-07-22T14:43:50;27.20;40.90
35680;DHT22;21803;53.586;10.040;2023-07-22T14:46:16;27.10;40.80
35680;DHT22;21803;53.586;10.040;2023-07-22T14:48:41;27.10;40.80
35680;DHT22;21803;53.586;10.040;2023-07-22T14:51:08;27.10;40.80
35680;DHT22;21803;53.586;10.040;2023-07-22T14:53:33;27.10;40.90
35680;DHT22;21803;53.586;10.040;2023-07-22T14:55:59;27.10;40.90
35680;DHT22;21803;53.586;10.040;2023-07-22T14:58:24;27.10;40.90
35680;DHT22;21803;53.586;10.040;2023-07-22T15:00:50;27.10;40.90
35680;DHT22;21803;53.586;10.040;2023-07-22T15:03:16;27.00;40.80
35680;DHT22;21803;53.586;10.040;2023-07-22T15:05:41;27.10;40.90
35680;DHT22;21803;53.586;10.040;2023-07-22T15:08:07;27.10;40.90
35680;DHT22;21803;53.586;10.040;2023-07-22T15:10:32;27.10;40.90
35680;DHT22;21803;53.586;10.040;2023-07-22T15:12:58;27.00;40.80
35680;DHT22;21803;53.586;10.040;2023-07-22T15:15:24;27.10;40.90
35680;DHT22;21803;53.586;10.040;2023-07-22T15:17:49;27.10;40.90
35680;DHT22;21803;53.586;10.040;2023-07-22T15:20:15;27.10;40.90
35680;DHT22;21803;53.586;10.040;2023-07-22T15:22:40;27.10;40.80
35680;DHT22;21803;53.586;10.040;2023-07-22T15:25:06;27.00;40.80
35680;DHT22;21803;53.586;10.040;2023-07-22T15:27:32;27.10;40.90
35680;DHT22;21803;53.586;10.040;2023-07-22T15:29:57;27.10;40.90
35680;DHT22;21803;53.586;10.040;2023-07-22T15:32:23;27.00;40.80
35680;DHT22;21803;53.586;10.040;2023-07-22T15:34:48;27.00;40.80
35680;DHT22;21803;53.586;10.040;2023-07-22T15:37:14;27.10;40.80
35680;DHT22;21803;53.586;10.040;2023-07-22T15:39:39;27.10;40.90
35680;DHT22;21803;53.586;10.040;2023-07-22T15:42:05;27.00;40.80
35680;DHT22;21803;53.586;10.040;2023-07-22T15:44:31;27.00;40.80
35680;DHT22;21803;53.586;10.040;2023-07-22T15:46:57;27.00;40.80
35680;DHT22;21803;53.586;10.040;2023-07-22T15:49:22;27.00;40.80
35680;DHT22;21803;53.586;10.040;2023-07-22T15:51:48;27.10;40.90
35680;DHT22;21803;53.586;10.040;2023-07-22T15:54:13;27.00;40.80
35680;DHT22;21803;53.586;10.040;2023-07-22T15:56:40;27.00;40.80
35680;DHT22;21803;53.586;10.040;2023-07-22T15:59:06;27.00;40.80
35680;DHT22;21803;53.586;10.040;2023-07-22T16:01:32;27.00;40.90
35680;DHT22;21803;53.586;10.040;2023-07-22T16:03:57;27.00;40.80
35680;DHT22;21803;53.586;10.040;2023-07-22T16:06:23;27.00;40.90
35680;DHT22;21803;53.586;10.040;2023-07-22T16:08:48;27.10;41.00
35680;DHT22;21803;53.586;10.040;2023-07-22T16:11:14;27.00;40.90
35680;DHT22;21803;53.586;10.040;2023-07-22T16:13:39;27.00;40.90
35680;DHT22;21803;53.586;10.040;2023-07-22T16:16:04;27.00;40.90
35680;DHT22;21803;53.586;10.040;2023-07-22T16:18:30;27.00;40.90
35680;DHT22;21803;53.586;10.040;2023-07-22T16:20:56;27.00;40.90
35680;DHT22;21803;53.586;10.040;2023-07-22T16:23:22;27.10;41.00
35680;DHT22;21803;53.586;10.040;2023-07-22T16:25:48;27.00;40.90
35680;DHT22;21803;53.586;10.040;2023-07-22T16:28:14;27.00;41.00
35680;DHT22;21803;53.586;10.040;2023-07-22T16:30:40;27.00;41.00
35680;DHT22;21803;53.586;10.040;2023-07-22T16:33:05;27.00;41.00
35680;DHT22;21803;53.586;10.040;2023-07-22T16:35:30;27.00;41.00
35680;DHT22;21803;53.586;10.040;2023-07-22T16:37:56;27.10;41.10
35680;DHT22;21803;53.586;10.040;2023-07-22T16:40:22;27.00;41.00
35680;DHT22;21803;53.586;10.040;2023-07-22T16:42:47;27.00;41.10
35680;DHT22;21803;53.586;10.040;2023-07-22T16:45:13;27.00;41.10
35680;DHT22;21803;53.586;10.040;2023-07-22T16:47:38;26.90;41.00
35680;DHT22;21803;53.586;10.040;2023-07-22T16:50:04;27.00;41.10
35680;DHT22;21803;53.586;10.040;2023-07-22T16:52:30;27.00;41.10
35680;DHT22;21803;53.586;10.040;2023-07-22T16:54:56;27.00;41.10
35680;DHT22;21803;53.586;10.040;2023-07-22T16:57:21;27.00;41.10
35680;DHT22;21803;53.586;10.040;2023-07-22T16:59:47;27.00;41.10
35680;DHT22;21803;53.586;10.040;2023-07-22T17:02:12;27.00;41.10
35680;DHT22;21803;53.586;10.040;2023-07-22T17:04:38;26.90;41.10
35680;DHT22;21803;53.586;10.040;2023-07-22T17:07:04;27.00;41.10
35680;DHT22;21803;53.586;10.040;2023-07-22T17:09:29;27.00;41.10
35680;DHT22;21803;53.586;10.040;2023-07-22T17:11:55;27.10;41.20
35680;DHT22;21803;53.586;10.040;2023-07-22T17:14:20;27.00;41.20
35680;DHT22;21803;53.586;10.040;2023-07-22T17:16:46;27.00;41.20
35680;DHT22;21803;53.586;10.040;2023-07-22T17:19:11;27.00;41.20
35680;DHT22;21803;53.586;10.040;2023-07-22T17:21:37;27.00;41.20
35680;DHT22;21803;53.586;10.040;2023-07-22T17:24:02;26.80;41.10
35680;DHT22;21803;53.586;10.040;2023-07-22T17:26:28;27.00;41.20
35680;DHT22;21803;53.586;10.040;2023-07-22T17:28:54;27.00;41.20
35680;DHT22;21803;53.586;10.040;2023-07-22T17:31:19;27.00;41.30
35680;DHT22;21803;53.586;10.040;2023-07-22T17:33:45;27.00;41.20
35680;DHT22;21803;53.586;10.040;2023-07-22T17:36:10;27.00;41.30
35680;DHT22;21803;53.586;10.040;2023-07-22T17:38:36;27.00;41.20
35680;DHT22;21803;53.586;10.040;2023-07-22T17:41:01;27.00;41.30
35680;DHT22;21803;53.586;10.040;2023-07-22T17:43:27;27.00;41.30
35680;DHT22;21803;53.586;10.040;2023-07-22T17:45:52;27.00;41.30
35680;DHT22;21803;53.586;10.040;2023-07-22T17:48:18;27.00;41.30
35680;DHT22;21803;53.586;10.040;2023-07-22T17:50:43;26.90;41.30
35680;DHT22;21803;53.586;10.040;2023-07-22T17:53:09;27.00;41.30
35680;DHT22;21803;53.586;10.040;2023-07-22T17:55:35;26.90;41.30
35680;DHT22;21803;53.586;10.040;2023-07-22T17:58:00;26.90;41.30
35680;DHT22;21803;53.586;10.040;2023-07-22T18:00:26;26.90;41.30
35680;DHT22;21803;53.586;10.040;2023-07-22T18:02:51;26.90;41.40
35680;DHT22;21803;53.586;10.040;2023-07-22T18:05:17;27.00;41.40
35680;DHT22;21803;53.586;10.040;2023-07-22T18:07:43;26.90;41.40
35680;DHT22;21803;53.586;10.040;2023-07-22T18:10:08;27.00;41.40
35680;DHT22;21803;53.586;10.040;2023-07-22T18:12:34;26.90;41.40
35680;DHT22;21803;53.586;10.040;2023-07-22T18:15:00;27.00;41.50
35680;DHT22;21803;53.586;10.040;2023-07-22T18:17:25;26.80;41.40
35680;DHT22;21803;53.586;10.040;2023-07-22T18:19:50;27.00;41.50
35680;DHT22;21803;53.586;10.040;2023-07-22T18:22:16;26.90;41.50
35680;DHT22;21803;53.586;10.040;2023-07-22T18:24:42;26.80;41.40
35680;DHT22;21803;53.586;10.040;2023-07-22T18:27:07;26.90;41.50
35680;DHT22;21803;53.586;10.040;2023-07-22T18:29:33;26.90;41.50
35680;DHT22;21803;53.586;10.040;2023-07-22T18:31:58;26.90;41.60
35680;DHT22;21803;53.586;10.040;2023-07-22T18:34:24;26.90;41.50
35680;DHT22;21803;53.586;10.040;2023-07-22T18:36:50;27.00;41.60
35680;DHT22;21803;53.586;10.040;2023-07-22T18:39:16;26.90;41.50
35680;DHT22;21803;53.586;10.040;2023-07-22T18:41:42;26.80;41.50
35680;DHT22;21803;53.586;10.040;2023-07-22T18:44:08;27.00;41.60
35680;DHT22;21803;53.586;10.040;2023-07-22T18:46:33;26.90;41.60
35680;DHT22;21803;53.586;10.040;2023-07-22T18:48:59;27.00;41.60
35680;DHT22;21803;53.586;10.040;2023-07-22T18:51:24;26.90;41.60
35680;DHT22;21803;53.586;10.040;2023-07-22T18:53:52;26.90;41.60
35680;DHT22;21803;53.586;10.040;2023-07-22T18:56:18;26.90;41.60
35680;DHT22;21803;53.586;10.040;2023-07-22T18:58:43;26.90;41.60
35680;DHT22;21803;53.586;10.040;2023-07-22T19:01:10;27.00;41.70
35680;DHT22;21803;53.586;10.040;2023-07-22T19:03:35;27.00;41.70
35680;DHT22;21803;53.586;10.040;2023-07-22T19:06:01;27.00;41.70
35680;DHT22;21803;53.586;10.040;2023-07-22T19:08:26;26.90;41.60
35680;DHT22;21803;53.586;10.040;2023-07-22T19:10:52;26.90;41.70